Time;durP1;ratioP1;P1;durP2;ratioP2;P2;SDS_P1;SDS_P2;PMS_P1;PMS_P2;Temp;Humidity;BMP_temperature;BMP_pressure;BME280_temperature;BME280_humidity;BME280_pressure;Samples;Min_cycle;Max_cycle;Signal;HPM_P1;HPM_P2
2023/05/09 00:01:15;;;;;;;8.53;7.80;;;17.90;99.90;;;;;;5013997;28;21176;-74
2023/05/09 00:03:41;;;;;;;10.57;9.67;;;17.90;99.90;;;;;;5028626;28;20719;-74
2023/05/09 00:06:08;;;;;;;11.63;10.20;;;17.90;99.90;;;;;;4999193;28;20678;-73
2023/05/09 00:08:34;;;;;;;8.40;7.60;;;17.80;99.90;;;;;;5033288;28;20564;-74
2023/05/09 00:11:01;;;;;;;11.10;10.10;;;17.80;99.90;;;;;;5015785;28;20671;-74
2023/05/09 00:13:27;;;;;;;11.27;10.17;;;17.80;99.90;;;;;;5015467;28;20604;-74
2023/05/09 00:15:53;;;;;;;11.80;10.20;;;17.70;99.90;;;;;;5033151;28;20695;-81
2023/05/09 00:18:22;;;;;;;12.40;11.17;;;17.70;99.90;;;;;;5033090;28;21009;-81
2023/05/09 00:20:49;;;;;;;11.03;10.10;;;17.70;99.90;;;;;;5013890;28;20178;-81
2023/05/09 00:23:15;;;;;;;10.17;9.27;;;17.70;99.90;;;;;;5013902;28;20601;-81
2023/05/09 00:25:41;;;;;;;10.37;9.37;;;17.70;99.90;;;;;;5011668;28;20561;-81
2023/05/09 00:28:07;;;;;;;12.10;10.80;;;17.60;99.90;;;;;;5020482;28;20588;-83
2023/05/09 00:30:33;;;;;;;11.40;10.50;;;17.60;99.90;;;;;;5014942;28;20907;-81
2023/05/09 00:32:58;;;;;;;9.73;8.83;;;17.60;99.90;;;;;;5033073;28;20197;-81
2023/05/09 00:35:24;;;;;;;9.97;9.07;;;17.60;99.90;;;;;;5033098;28;20180;-81
2023/05/09 00:37:50;;;;;;;10.43;9.47;;;17.60;99.90;;;;;;5016747;28;20273;-81
2023/05/09 00:40:16;;;;;;;11.20;10.00;;;17.70;99.90;;;;;;5018293;28;20177;-81
2023/05/09 00:42:41;;;;;;;12.47;11.47;;;17.70;99.90;;;;;;5014529;28;20300;-81
2023/05/09 00:45:08;;;;;;;12.23;11.03;;;17.80;99.90;;;;;;5031765;28;20636;-81
2023/05/09 00:47:34;;;;;;;11.03;9.90;;;17.70;99.90;;;;;;4998025;28;20205;-81
2023/05/09 00:50:00;;;;;;;12.67;11.37;;;17.70;99.90;;;;;;5031715;28;20929;-81
2023/05/09 00:52:26;;;;;;;12.00;10.90;;;17.80;99.90;;;;;;5006929;28;20609;-81
2023/05/09 00:54:53;;;;;;;11.63;10.43;;;17.80;99.90;;;;;;5009489;28;20588;-81
2023/05/09 00:57:20;;;;;;;11.50;10.40;;;17.80;99.90;;;;;;5015611;28;20262;-81
2023/05/09 00:59:46;;;;;;;10.43;9.50;;;17.80;99.90;;;;;;4988917;28;20600;-81
2023/05/09 01:02:11;;;;;;;11.10;10.00;;;17.80;99.90;;;;;;5013048;28;20580;-81
2023/05/09 01:04:38;;;;;;;14.23;12.30;;;17.80;99.90;;;;;;5010757;28;20221;-82
2023/05/09 01:07:27;;;;;;;11.77;10.67;;;17.80;99.90;;;;;;5011438;28;20571;-81
2023/05/09 01:10:20;;;;;;;12.03;10.93;;;17.80;99.90;;;;;;5011019;28;20577;-81
2023/05/09 01:13:17;;;;;;;12.53;11.03;;;17.80;99.90;;;;;;4987918;28;21085;-81
2023/05/09 01:16:24;;;;;;;11.93;10.83;;;17.70;99.90;;;;;;5012554;28;20587;-81
2023/05/09 01:19:26;;;;;;;12.00;10.90;;;17.80;99.90;;;;;;4930461;28;20628;-77
2023/05/09 01:21:53;;;;;;;11.73;10.73;;;17.80;99.90;;;;;;4993949;28;20578;-77
2023/05/09 01:24:56;;;;;;;12.80;11.60;;;17.80;99.90;;;;;;5011672;28;20707;-82
2023/05/09 01:27:52;;;;;;;13.43;12.23;;;17.70;99.90;;;;;;4978036;28;20643;-82
2023/05/09 01:30:19;;;;;;;14.00;12.60;;;17.70;99.90;;;;;;4978326;28;20639;-83
2023/05/09 01:32:48;;;;;;;13.03;11.83;;;17.70;99.90;;;;;;4994266;28;20601;-82
2023/05/09 01:35:15;;;;;;;14.00;12.50;;;17.60;99.90;;;;;;4978518;28;20580;-82
2023/05/09 01:37:43;;;;;;;14.60;13.30;;;17.60;99.90;;;;;;4977780;28;21117;-82
2023/05/09 01:40:19;;;;;;;14.70;13.30;;;17.70;99.90;;;;;;4978237;28;20577;-82
2023/05/09 01:42:54;;;;;;;14.47;12.93;;;17.70;99.90;;;;;;4993919;28;20624;-82
2023/05/09 01:45:22;;;;;;;14.90;13.40;;;17.60;99.90;;;;;;4978462;28;21184;-81
2023/05/09 01:47:49;;;;;;;14.77;13.20;;;17.60;99.90;;;;;;5009882;28;20629;-81
2023/05/09 01:50:17;;;;;;;12.87;11.70;;;17.60;99.90;;;;;;4994566;28;20574;-82
2023/05/09 01:52:46;;;;;;;14.67;13.23;;;17.60;99.90;;;;;;5011835;28;20604;-81
2023/05/09 01:55:14;;;;;;;16.00;14.40;;;17.60;99.90;;;;;;4982708;28;20579;-81
2023/05/09 01:57:40;;;;;;;12.97;11.70;;;17.60;99.90;;;;;;4978002;28;20592;-81
2023/05/09 02:00:08;;;;;;;13.77;12.33;;;17.60;99.90;;;;;;4977830;28;20598;-81
2023/05/09 02:02:43;;;;;;;14.03;12.53;;;17.60;99.90;;;;;;4994239;28;20621;-81
2023/05/09 02:05:10;;;;;;;13.80;12.60;;;17.70;99.90;;;;;;4993329;28;20707;-81
2023/05/09 02:07:37;;;;;;;12.83;11.67;;;17.70;99.90;;;;;;4993914;28;20625;-80
2023/05/09 02:10:06;;;;;;;13.87;12.60;;;17.70;99.90;;;;;;4993839;28;20679;-81
2023/05/09 02:12:31;;;;;;;14.17;13.00;;;17.70;99.90;;;;;;4994061;28;20596;-81
2023/05/09 02:14:57;;;;;;;14.17;12.87;;;17.70;99.90;;;;;;4993437;28;20581;-81
2023/05/09 02:17:23;;;;;;;16.27;13.90;;;17.70;99.90;;;;;;4993811;28;20269;-81
2023/05/09 02:19:48;;;;;;;15.27;13.57;;;17.70;99.90;;;;;;5011195;28;20274;-82
2023/05/09 02:22:14;;;;;;;12.73;11.63;;;17.60;99.90;;;;;;4981908;28;20621;-81
2023/05/09 02:24:43;;;;;;;13.43;12.27;;;17.60;99.90;;;;;;5013329;28;20201;-81
2023/05/09 02:27:11;;;;;;;13.30;12.00;;;17.70;99.90;;;;;;4996160;28;21195;-81
2023/05/09 02:29:44;;;;;;;13.53;12.20;;;17.70;99.90;;;;;;5032094;28;20576;-81
2023/05/09 02:32:14;;;;;;;13.67;12.53;;;17.80;99.90;;;;;;5014328;28;20581;-82
2023/05/09 02:34:40;;;;;;;17.20;13.40;;;17.70;99.90;;;;;;5031084;28;21013;-81
2023/05/09 02:37:07;;;;;;;14.47;13.17;;;17.70;99.90;;;;;;4996378;28;20587;-81
2023/05/09 02:39:35;;;;;;;14.97;13.57;;;17.70;99.90;;;;;;4997216;28;20589;-83
2023/05/09 02:42:12;;;;;;;14.93;13.50;;;17.70;99.90;;;;;;5012823;28;20579;-82
2023/05/09 02:44:38;;;;;;;16.20;14.50;;;17.60;99.90;;;;;;4997013;28;20626;-82
2023/05/09 02:47:05;;;;;;;16.93;14.10;;;17.70;99.90;;;;;;4996079;28;20647;-82
2023/05/09 02:49:32;;;;;;;15.07;13.60;;;17.70;99.90;;;;;;5031163;28;20561;-82
2023/05/09 02:51:58;;;;;;;14.07;12.67;;;17.60;99.90;;;;;;5013165;28;20594;-82
2023/05/09 02:54:24;;;;;;;15.23;13.80;;;17.60;99.90;;;;;;5012909;28;20616;-82
2023/05/09 02:56:50;;;;;;;15.87;14.23;;;17.60;99.90;;;;;;5013093;28;20579;-82
2023/05/09 02:59:18;;;;;;;15.13;13.77;;;17.70;99.90;;;;;;5030384;28;20212;-81
2023/05/09 03:01:43;;;;;;;15.97;14.37;;;17.70;99.90;;;;;;4996471;28;20956;-81
2023/05/09 03:04:09;;;;;;;14.60;13.20;;;17.60;99.90;;;;;;5012420;28;20612;-73
2023/05/09 03:06:35;;;;;;;17.37;15.17;;;17.60;99.90;;;;;;5012855;28;20577;-72
2023/05/09 03:09:01;;;;;;;15.43;13.80;;;17.60;99.90;;;;;;5012567;28;20180;-73
2023/05/09 03:11:29;;;;;;;12.73;11.40;;;17.60;99.90;;;;;;4996769;28;20663;-73
2023/05/09 03:13:55;;;;;;;14.50;13.20;;;17.60;99.90;;;;;;5012894;28;20601;-73
2023/05/09 03:16:21;;;;;;;14.73;13.53;;;17.60;99.90;;;;;;5012447;28;20595;-72
2023/05/09 03:18:48;;;;;;;14.47;13.07;;;17.60;99.90;;;;;;4998286;28;20655;-72
2023/05/09 03:21:14;;;;;;;14.83;13.43;;;17.60;99.90;;;;;;5011220;28;20647;-73
2023/05/09 03:23:40;;;;;;;13.63;12.23;;;17.60;99.90;;;;;;4996869;28;20198;-73
2023/05/09 03:26:06;;;;;;;15.67;14.07;;;17.60;99.90;;;;;;4963832;28;20621;-73
2023/05/09 03:28:32;;;;;;;15.33;13.93;;;17.60;99.90;;;;;;4997386;28;20170;-81
2023/05/09 03:31:01;;;;;;;16.73;15.13;;;17.60;99.90;;;;;;4996680;28;20174;-81
2023/05/09 03:33:28;;;;;;;14.47;13.17;;;17.60;99.90;;;;;;4964578;28;20613;-78
2023/05/09 03:35:54;;;;;;;15.97;14.47;;;17.60;99.90;;;;;;5014061;28;20706;-78
2023/05/09 03:38:23;;;;;;;15.87;14.37;;;17.60;99.90;;;;;;4996780;28;21145;-78
2023/05/09 03:40:50;;;;;;;16.00;14.60;;;17.70;99.90;;;;;;4980444;28;21206;-78
2023/05/09 03:43:16;;;;;;;14.90;13.50;;;17.70;99.90;;;;;;4963699;28;20636;-78
2023/05/09 03:45:42;;;;;;;14.00;11.90;;;17.70;99.90;;;;;;4996591;28;21205;-78
2023/05/09 03:48:10;;;;;;;15.20;13.70;;;17.70;99.90;;;;;;4995862;28;20261;-78
2023/05/09 03:50:41;;;;;;;14.67;13.27;;;17.70;99.90;;;;;;4996436;28;20585;-79
2023/05/09 03:53:08;;;;;;;15.07;13.77;;;17.80;99.90;;;;;;4995921;28;20628;-78
2023/05/09 03:55:35;;;;;;;16.37;14.70;;;17.80;99.90;;;;;;4989322;28;20946;-78
2023/05/09 03:58:02;;;;;;;14.20;12.90;;;17.80;99.90;;;;;;4996141;28;20581;-78
2023/05/09 04:00:29;;;;;;;16.10;14.47;;;17.80;99.90;;;;;;4996176;28;20185;-79
2023/05/09 04:03:03;;;;;;;14.40;13.10;;;17.80;99.90;;;;;;5013952;28;20711;-79
2023/05/09 04:05:37;;;;;;;15.07;13.67;;;17.80;99.90;;;;;;4995404;28;20651;-78
2023/05/09 04:08:05;;;;;;;14.03;11.77;;;17.80;99.90;;;;;;4994909;28;20987;-78
2023/05/09 04:10:31;;;;;;;15.00;13.57;;;17.80;99.90;;;;;;4994351;28;20602;-78
2023/05/09 04:12:58;;;;;;;13.33;12.03;;;17.80;99.90;;;;;;5012917;28;21186;-78
2023/05/09 04:15:24;;;;;;;15.10;13.73;;;17.80;99.90;;;;;;4990237;28;20619;-78
2023/05/09 04:17:50;;;;;;;14.53;13.03;;;17.80;99.90;;;;;;5014653;28;20590;-78
2023/05/09 04:20:15;;;;;;;14.50;13.27;;;17.80;99.90;;;;;;4998303;28;20627;-78
2023/05/09 04:22:42;;;;;;;15.87;14.20;;;17.80;99.90;;;;;;5005633;28;20210;-77
2023/05/09 04:25:11;;;;;;;15.30;13.80;;;17.70;99.90;;;;;;4995518;28;20625;-78
2023/05/09 04:27:37;;;;;;;18.67;16.87;;;17.70;99.90;;;;;;5011582;28;20210;-78
2023/05/09 04:30:05;;;;;;;19.47;17.67;;;17.70;99.90;;;;;;4996008;28;20584;-78
2023/05/09 04:32:31;;;;;;;16.43;14.93;;;17.70;99.90;;;;;;5006484;28;20713;-78
2023/05/09 04:34:57;;;;;;;15.80;14.37;;;17.60;99.90;;;;;;5015679;28;20678;-78
2023/05/09 04:37:29;;;;;;;16.23;14.73;;;17.60;99.90;;;;;;5014799;28;20759;-78
2023/05/09 04:39:55;;;;;;;17.30;15.70;;;17.60;99.90;;;;;;5033293;28;20668;-78
2023/05/09 04:42:26;;;;;;;15.87;14.20;;;17.60;99.90;;;;;;4998335;28;20596;-77
2023/05/09 04:44:52;;;;;;;15.00;13.70;;;17.50;99.90;;;;;;5033112;28;20564;-78
2023/05/09 04:47:20;;;;;;;17.00;15.40;;;17.50;99.90;;;;;;5014554;28;20689;-78
2023/05/09 04:49:46;;;;;;;17.07;15.37;;;17.50;99.90;;;;;;5015294;28;20667;-78
2023/05/09 04:52:11;;;;;;;16.43;14.83;;;17.50;99.90;;;;;;4998452;28;20683;-78
2023/05/09 04:54:37;;;;;;;15.80;14.20;;;17.50;99.90;;;;;;5014849;28;20696;-77
2023/05/09 04:57:05;;;;;;;17.20;15.57;;;17.50;99.90;;;;;;4998534;28;20654;-78
2023/05/09 04:59:32;;;;;;;15.13;13.73;;;17.50;99.90;;;;;;4998694;28;20730;-78
2023/05/09 05:01:58;;;;;;;15.43;14.03;;;17.50;99.90;;;;;;5014947;28;20989;-78
2023/05/09 05:04:23;;;;;;;17.03;15.37;;;17.50;99.90;;;;;;5014466;28;20691;-78
2023/05/09 05:06:49;;;;;;;16.83;15.07;;;17.60;99.90;;;;;;5014639;28;20216;-78
2023/05/09 05:09:15;;;;;;;18.13;16.33;;;17.70;99.90;;;;;;4997977;28;20569;-78
2023/05/09 05:11:42;;;;;;;17.20;15.60;;;17.60;99.90;;;;;;5025864;28;20183;-78
2023/05/09 05:14:08;;;;;;;17.37;15.57;;;17.70;99.90;;;;;;5031599;28;21231;-78
2023/05/09 05:16:33;;;;;;;17.57;15.77;;;17.70;99.90;;;;;;5014417;28;20264;-78
2023/05/09 05:19:00;;;;;;;16.73;15.13;;;17.70;99.90;;;;;;5014564;28;20177;-78
2023/05/09 05:21:27;;;;;;;15.27;13.93;;;17.70;99.90;;;;;;5007459;28;20632;-78
2023/05/09 05:23:53;;;;;;;15.40;14.00;;;17.70;99.90;;;;;;5012442;28;20636;-78
2023/05/09 05:26:19;;;;;;;14.43;12.80;;;17.80;99.90;;;;;;4977943;28;20260;-78
2023/05/09 05:28:46;;;;;;;15.33;13.90;;;17.90;99.90;;;;;;4994941;28;20581;-80
2023/05/09 05:31:13;;;;;;;16.30;14.60;;;18.00;99.90;;;;;;4988479;28;20614;-83
2023/05/09 05:33:38;;;;;;;15.53;13.70;;;18.00;99.90;;;;;;4999049;28;20617;-85
2023/05/09 05:36:05;;;;;;;14.40;13.10;;;18.00;99.90;;;;;;4983273;28;20213;-82
2023/05/09 05:38:30;;;;;;;13.40;12.07;;;18.10;99.90;;;;;;4998984;28;20698;-83
2023/05/09 05:40:57;;;;;;;17.43;15.73;;;18.20;99.90;;;;;;5009897;28;20592;-83
2023/05/09 05:43:24;;;;;;;15.60;14.00;;;18.30;99.90;;;;;;4996929;28;20628;-83
2023/05/09 05:45:50;;;;;;;15.00;13.60;;;18.40;99.90;;;;;;4981453;28;20590;-84
2023/05/09 05:48:20;;;;;;;18.10;16.40;;;18.40;99.90;;;;;;4975159;28;20278;-83
2023/05/09 05:50:46;;;;;;;17.40;15.70;;;18.40;99.90;;;;;;5014404;28;20606;-84
2023/05/09 05:53:14;;;;;;;19.77;17.87;;;18.50;99.90;;;;;;5014125;28;20967;-84
2023/05/09 05:55:40;;;;;;;17.90;16.17;;;18.50;99.90;;;;;;5014785;28;20587;-84
2023/05/09 05:58:06;;;;;;;17.53;15.83;;;18.50;99.90;;;;;;5013756;28;20667;-84
2023/05/09 06:00:32;;;;;;;16.97;15.37;;;18.50;99.90;;;;;;5015888;28;20651;-84
2023/05/09 06:03:02;;;;;;;15.60;14.10;;;18.50;99.90;;;;;;5014291;28;20264;-83
2023/05/09 06:05:43;;;;;;;16.00;14.60;;;18.60;99.90;;;;;;5018244;28;20587;-84
2023/05/09 06:08:10;;;;;;;15.73;14.23;;;18.80;99.90;;;;;;5013808;28;20577;-79
2023/05/09 06:10:35;;;;;;;15.30;13.30;;;19.10;99.90;;;;;;4997135;28;20572;-79
2023/05/09 06:13:01;;;;;;;15.03;13.63;;;19.30;99.90;;;;;;5018884;28;20194;-79
2023/05/09 06:15:27;;;;;;;18.37;16.77;;;19.60;99.90;;;;;;5013236;28;20173;-79
2023/05/09 06:17:54;;;;;;;17.73;15.53;;;19.80;99.90;;;;;;5013015;28;20584;-77
2023/05/09 06:20:20;;;;;;;15.70;14.20;;;19.90;99.90;;;;;;5012996;28;20684;-80
2023/05/09 06:22:46;;;;;;;13.07;11.90;;;20.00;99.90;;;;;;4986870;28;20704;-81
2023/05/09 06:25:12;;;;;;;15.20;13.80;;;20.20;99.90;;;;;;4976712;28;20182;-82
2023/05/09 06:27:37;;;;;;;13.37;11.97;;;20.60;99.90;;;;;;4993594;28;20210;-82
2023/05/09 06:30:04;;;;;;;10.60;9.60;;;21.20;99.90;;;;;;5004173;28;20187;-81
2023/05/09 06:32:29;;;;;;;13.87;12.57;;;21.60;99.90;;;;;;4993344;28;20229;-81
2023/05/09 06:34:55;;;;;;;11.53;10.50;;;21.80;99.90;;;;;;5011587;28;21149;-81
2023/05/09 06:37:21;;;;;;;13.00;10.50;;;22.00;99.90;;;;;;5010738;28;20538;-81
2023/05/09 06:39:47;;;;;;;10.13;9.13;;;22.30;99.90;;;;;;5011531;28;20249;-82
2023/05/09 06:42:12;;;;;;;10.43;9.43;;;22.60;99.90;;;;;;5009642;28;20170;-81
2023/05/09 06:44:38;;;;;;;11.67;10.60;;;23.00;99.90;;;;;;4977599;28;20293;-82
2023/05/09 06:47:04;;;;;;;10.13;9.17;;;23.20;99.90;;;;;;4993164;28;20632;-82
2023/05/09 06:49:31;;;;;;;9.50;8.60;;;23.40;99.90;;;;;;4966796;28;20228;-81
2023/05/09 06:51:57;;;;;;;11.07;10.13;;;23.60;99.90;;;;;;5012470;28;20174;-83
2023/05/09 06:54:22;;;;;;;10.80;9.00;;;23.90;99.90;;;;;;4997253;28;20717;-81
2023/05/09 06:56:48;;;;;;;8.90;8.10;;;24.20;99.90;;;;;;5015170;28;20170;-81
2023/05/09 06:59:15;;;;;;;8.37;7.67;;;24.20;99.90;;;;;;5013735;28;20174;-81
2023/05/09 07:01:41;;;;;;;9.00;7.23;;;24.40;99.90;;;;;;5015355;28;20181;-81
2023/05/09 07:04:07;;;;;;;8.43;6.87;;;24.40;99.90;;;;;;5031671;28;20636;-80
2023/05/09 07:06:33;;;;;;;5.63;5.23;;;24.60;99.90;;;;;;5033790;28;21051;-79
2023/05/09 07:08:59;;;;;;;5.20;4.57;;;25.00;99.90;;;;;;5037400;28;20173;-79
2023/05/09 07:11:25;;;;;;;5.43;4.93;;;25.40;99.90;;;;;;5037978;28;20938;-81
2023/05/09 07:13:51;;;;;;;5.00;4.20;;;25.70;99.90;;;;;;5037394;28;20266;-82
2023/05/09 07:16:17;;;;;;;4.20;3.70;;;25.70;99.90;;;;;;5034425;28;20574;-81
2023/05/09 07:18:43;;;;;;;3.30;3.00;;;25.70;99.90;;;;;;5033680;28;20178;-81
2023/05/09 07:21:09;;;;;;;4.70;3.40;;;25.80;99.90;;;;;;5030399;28;20202;-80
2023/05/09 07:23:34;;;;;;;3.90;3.30;;;25.50;99.90;;;;;;4997098;28;20621;-79
2023/05/09 07:26:00;;;;;;;4.40;4.00;;;25.30;99.90;;;;;;5018622;28;20178;-81
2023/05/09 07:28:26;;;;;;;3.57;3.27;;;25.10;99.90;;;;;;4997374;28;20176;-81
2023/05/09 07:30:55;;;;;;;4.27;3.87;;;24.90;99.90;;;;;;5014635;28;20656;-79
2023/05/09 07:33:21;;;;;;;5.37;3.17;;;24.70;99.90;;;;;;5012790;28;20190;-80
2023/05/09 07:35:47;;;;;;;4.97;2.77;;;24.60;99.90;;;;;;4996727;28;21179;-79
2023/05/09 07:38:13;;;;;;;4.37;3.40;;;24.70;99.90;;;;;;5016207;28;20585;-80
2023/05/09 07:40:40;;;;;;;4.17;2.37;;;24.70;99.90;;;;;;5014552;28;20655;-80
2023/05/09 07:43:05;;;;;;;3.07;2.77;;;24.90;99.90;;;;;;5013729;28;20620;-80
2023/05/09 07:45:31;;;;;;;3.03;2.50;;;25.30;99.90;;;;;;5013163;28;20578;-80
2023/05/09 07:47:57;;;;;;;4.30;2.83;;;25.70;99.90;;;;;;5013912;28;20624;-80
2023/05/09 07:50:23;;;;;;;3.30;3.00;;;26.00;99.90;;;;;;4996717;28;20171;-80
2023/05/09 07:52:48;;;;;;;3.30;2.13;;;26.20;99.90;;;;;;5014126;28;20202;-79
2023/05/09 07:55:14;;;;;;;5.90;2.90;;;26.50;99.90;;;;;;5013777;28;20266;-81
2023/05/09 07:57:40;;;;;;;3.13;2.70;;;26.70;99.90;;;;;;5014072;28;20175;-80
2023/05/09 08:00:07;;;;;;;2.70;1.97;;;26.70;99.90;;;;;;5022188;28;20311;-81
2023/05/09 08:02:39;;;;;;;2.33;1.80;;;26.80;99.90;;;;;;5037748;28;20584;-80
2023/05/09 08:05:05;;;;;;;2.53;1.90;;;26.90;99.90;;;;;;5033639;28;21126;-80
2023/05/09 08:07:31;;;;;;;2.10;1.63;;;27.10;99.90;;;;;;5033440;28;21020;-81
2023/05/09 08:09:56;;;;;;;1.80;1.20;;;27.30;99.90;;;;;;5028424;28;20575;-80
2023/05/09 08:12:22;;;;;;;2.47;1.33;;;27.60;99.90;;;;;;5011853;28;20647;-81
2023/05/09 08:14:48;;;;;;;1.83;1.37;;;28.00;99.90;;;;;;4996193;28;20205;-82
2023/05/09 08:17:13;;;;;;;2.50;1.60;;;28.30;99.90;;;;;;5013994;28;20162;-81
2023/05/09 08:19:39;;;;;;;3.40;2.13;;;28.70;99.90;;;;;;5013225;28;20175;-81
2023/05/09 08:22:05;;;;;;;1.93;1.17;;;29.00;99.90;;;;;;4995526;28;20185;-79
2023/05/09 08:24:31;;;;;;;3.00;1.20;;;29.40;99.90;;;;;;5013557;28;20194;-79
2023/05/09 08:26:57;;;;;;;2.83;1.13;;;29.70;99.90;;;;;;5013019;28;20211;-80
2023/05/09 08:29:22;;;;;;;1.63;1.03;;;29.80;99.90;;;;;;5013862;28;21147;-81
2023/05/09 08:31:48;;;;;;;1.60;0.90;;;30.00;99.90;;;;;;4980436;28;20661;-81
2023/05/09 08:34:14;;;;;;;2.83;0.90;;;30.20;99.90;;;;;;5012120;28;20203;-81
2023/05/09 08:36:40;;;;;;;1.90;1.00;;;30.70;99.90;;;;;;5013495;28;20180;-82
2023/05/09 08:39:06;;;;;;;1.67;0.90;;;31.20;99.90;;;;;;5015970;28;20612;-81
2023/05/09 08:41:34;;;;;;;2.40;1.10;;;31.80;99.90;;;;;;5012773;28;20654;-82
2023/05/09 08:44:00;;;;;;;3.20;1.03;;;32.10;99.90;;;;;;4995259;28;20713;-82
2023/05/09 08:46:35;;;;;;;1.53;0.93;;;32.00;99.50;;;;;;5013578;28;20950;-82
2023/05/09 08:49:04;;;;;;;2.03;1.00;;;32.00;95.90;;;;;;5013869;28;20687;-81
2023/05/09 08:51:31;;;;;;;2.67;1.30;;;31.80;96.10;;;;;;4995442;28;20615;-81
2023/05/09 08:53:57;;;;;;;1.57;0.90;;;31.70;94.50;;;;;;4995777;28;20623;-80
2023/05/09 08:56:23;;;;;;;1.50;0.90;;;31.60;93.40;;;;;;5005354;28;20782;-81
2023/05/09 08:58:50;;;;;;;2.33;0.80;;;31.80;93.90;;;;;;5033121;28;20644;-80
2023/05/09 09:01:16;;;;;;;2.70;0.90;;;32.10;93.90;;;;;;5031107;28;20596;-80
2023/05/09 09:03:46;;;;;;;2.87;1.30;;;32.20;93.30;;;;;;5016114;28;20655;-80
2023/05/09 09:06:13;;;;;;;1.83;0.97;;;32.30;92.60;;;;;;5032465;28;20663;-79
2023/05/09 09:08:39;;;;;;;2.73;0.90;;;32.30;91.40;;;;;;5031730;28;20926;-79
2023/05/09 09:11:06;;;;;;;2.03;0.90;;;32.50;92.30;;;;;;5028889;28;20577;-80
2023/05/09 09:13:37;;;;;;;1.77;0.90;;;32.90;91.80;;;;;;5010639;28;20601;-80
2023/05/09 09:16:03;;;;;;;1.60;0.90;;;32.90;88.90;;;;;;5016287;28;20675;-80
2023/05/09 09:18:32;;;;;;;2.77;1.00;;;32.60;81.80;;;;;;5012338;28;20588;-81
2023/05/09 09:21:10;;;;;;;2.17;0.80;;;32.10;79.60;;;;;;5011055;28;20592;-80
2023/05/09 09:23:39;;;;;;;2.33;0.80;;;31.90;81.00;;;;;;5010625;28;20950;-80
2023/05/09 09:26:05;;;;;;;1.50;0.70;;;31.90;81.40;;;;;;5012463;28;20573;-80
2023/05/09 09:28:31;;;;;;;1.60;0.70;;;31.80;83.30;;;;;;5012548;28;20584;-80
2023/05/09 09:30:57;;;;;;;3.07;1.23;;;31.90;83.40;;;;;;5010463;28;20184;-80
2023/05/09 09:33:25;;;;;;;1.50;0.70;;;31.90;83.20;;;;;;5011020;28;20744;-80
2023/05/09 09:35:52;;;;;;;2.03;0.80;;;31.80;83.10;;;;;;5010425;28;20271;-80
2023/05/09 09:38:19;;;;;;;2.10;0.90;;;31.80;80.40;;;;;;5012128;28;20584;-80
2023/05/09 09:41:03;;;;;;;1.80;0.80;;;31.60;81.00;;;;;;5011673;28;20899;-80
2023/05/09 09:43:32;;;;;;;1.87;0.80;;;31.20;77.60;;;;;;5010387;28;21204;-80
2023/05/09 09:46:02;;;;;;;2.00;0.87;;;30.70;71.70;;;;;;5011121;28;20621;-80
2023/05/09 09:48:33;;;;;;;1.83;0.90;;;30.20;76.10;;;;;;4994154;28;20596;-79
2023/05/09 09:51:10;;;;;;;2.40;0.80;;;30.00;77.40;;;;;;5014890;28;20681;-80
2023/05/09 09:53:42;;;;;;;1.50;0.70;;;29.90;79.70;;;;;;5016843;28;20941;-79
2023/05/09 09:56:08;;;;;;;1.60;0.80;;;30.00;81.50;;;;;;5031540;28;20577;-80
2023/05/09 09:58:35;;;;;;;1.63;0.70;;;30.00;80.60;;;;;;5031434;28;20591;-81
2023/05/09 10:01:12;;;;;;;1.93;1.00;;;30.20;80.80;;;;;;5031876;28;20663;-82
2023/05/09 10:03:40;;;;;;;3.30;0.87;;;30.20;79.80;;;;;;5031100;28;20960;-82
2023/05/09 10:06:14;;;;;;;1.40;0.70;;;30.10;79.60;;;;;;5030483;28;20666;-80
2023/05/09 10:08:40;;;;;;;1.70;0.77;;;30.10;78.50;;;;;;5030925;28;20577;-81
2023/05/09 10:11:07;;;;;;;1.70;0.87;;;30.00;77.50;;;;;;5029365;28;20581;-81
2023/05/09 10:13:37;;;;;;;2.47;1.03;;;29.60;76.70;;;;;;5011611;28;20646;-81
2023/05/09 10:16:04;;;;;;;1.50;0.70;;;29.40;77.40;;;;;;5009632;28;20589;-81
2023/05/09 10:18:31;;;;;;;1.80;0.90;;;29.40;78.20;;;;;;4993578;28;21152;-81
2023/05/09 10:21:02;;;;;;;1.40;0.70;;;29.30;78.80;;;;;;5011122;28;20643;-82
2023/05/09 10:23:33;;;;;;;2.80;0.80;;;29.30;79.40;;;;;;5011570;28;20652;-80
2023/05/09 10:26:09;;;;;;;2.53;0.90;;;29.30;79.80;;;;;;5010348;28;20581;-78
2023/05/09 10:28:37;;;;;;;1.80;0.93;;;29.20;76.10;;;;;;5016784;28;20591;-79
2023/05/09 10:31:10;;;;;;;1.40;0.90;;;28.90;77.80;;;;;;5011754;28;20601;-79
2023/05/09 10:33:47;;;;;;;1.50;0.87;;;28.50;76.90;;;;;;5012411;28;20589;-79
2023/05/09 10:36:15;;;;;;;1.80;0.80;;;28.20;77.80;;;;;;4995762;28;20569;-79
2023/05/09 10:38:42;;;;;;;2.23;1.00;;;28.10;79.60;;;;;;5011089;28;20678;-79
2023/05/09 10:41:09;;;;;;;2.67;1.00;;;28.00;78.70;;;;;;5011104;28;20597;-81
2023/05/09 10:43:48;;;;;;;2.43;0.90;;;27.80;79.20;;;;;;5009607;28;20659;-81
2023/05/09 10:46:14;;;;;;;1.90;1.10;;;27.70;80.60;;;;;;5010632;28;20638;-80
2023/05/09 10:48:41;;;;;;;3.30;1.53;;;27.50;79.30;;;;;;5024498;28;20700;-80
2023/05/09 10:51:08;;;;;;;2.20;1.07;;;27.40;80.00;;;;;;5031703;28;21345;-80
2023/05/09 10:53:42;;;;;;;2.50;1.00;;;27.20;80.80;;;;;;5013329;28;20591;-79
2023/05/09 10:56:20;;;;;;;1.70;0.93;;;27.10;79.20;;;;;;5031646;28;20578;-79
2023/05/09 10:58:47;;;;;;;1.67;0.87;;;27.20;81.80;;;;;;5014051;28;20687;-80
2023/05/09 11:01:13;;;;;;;3.10;1.13;;;27.20;82.80;;;;;;5031434;28;20564;-81
2023/05/09 11:03:55;;;;;;;3.60;1.37;;;27.30;83.10;;;;;;5031979;28;20706;-81
2023/05/09 11:06:44;;;;;;;2.23;0.90;;;27.30;82.70;;;;;;5032561;28;20253;-80
2023/05/09 11:09:31;;;;;;;1.70;0.90;;;27.30;82.20;;;;;;5031691;28;20579;-80
2023/05/09 11:12:07;;;;;;;3.33;1.33;;;27.40;83.40;;;;;;5023388;28;20629;-80
2023/05/09 11:14:44;;;;;;;2.07;1.30;;;27.30;79.70;;;;;;4994320;28;20627;-80
2023/05/09 11:17:14;;;;;;;2.20;1.13;;;27.30;81.50;;;;;;4993675;28;20646;-79
2023/05/09 11:19:45;;;;;;;1.70;1.00;;;27.40;83.30;;;;;;4994510;28;20585;-80
2023/05/09 11:22:13;;;;;;;2.83;1.13;;;27.50;83.40;;;;;;4995192;28;20679;-80
2023/05/09 11:24:44;;;;;;;1.80;1.10;;;27.80;84.60;;;;;;5012995;28;20706;-81
2023/05/09 11:27:19;;;;;;;2.73;1.30;;;28.00;84.70;;;;;;5010513;28;20625;-80
2023/05/09 11:29:58;;;;;;;2.53;1.10;;;27.90;81.00;;;;;;4977208;28;20927;-73
2023/05/09 11:32:30;;;;;;;1.70;0.90;;;27.80;81.20;;;;;;5010770;28;20573;-73
2023/05/09 11:35:08;;;;;;;1.87;1.10;;;27.90;83.00;;;;;;5009054;28;20639;-72
2023/05/09 11:37:51;;;;;;;2.03;1.00;;;28.10;82.90;;;;;;5010498;28;20955;-72
2023/05/09 11:40:19;;;;;;;3.70;1.03;;;28.10;81.70;;;;;;5013975;28;20986;-72
2023/05/09 11:42:49;;;;;;;2.53;0.93;;;28.10;81.50;;;;;;5014136;28;20585;-72
2023/05/09 11:45:16;;;;;;;3.00;1.00;;;28.00;81.30;;;;;;5023195;28;20612;-72
2023/05/09 11:47:41;;;;;;;2.10;0.90;;;28.00;82.20;;;;;;5032308;28;20646;-72
2023/05/09 11:50:09;;;;;;;1.80;0.90;;;28.10;82.50;;;;;;5033661;28;21036;-72
2023/05/09 11:52:36;;;;;;;1.50;0.70;;;28.20;82.40;;;;;;5015535;28;20181;-73
2023/05/09 11:55:06;;;;;;;1.60;0.73;;;28.40;82.60;;;;;;4996574;28;20561;-73
2023/05/09 11:57:32;;;;;;;1.50;0.90;;;28.40;80.90;;;;;;5013445;28;20595;-72
2023/05/09 12:00:00;;;;;;;1.73;0.80;;;28.20;79.80;;;;;;5012822;28;20620;-72
2023/05/09 12:02:27;;;;;;;1.70;0.80;;;28.10;78.60;;;;;;5011922;28;20575;-72
2023/05/09 12:04:53;;;;;;;1.67;0.77;;;27.90;78.80;;;;;;5014105;28;20881;-73
2023/05/09 12:07:19;;;;;;;2.90;0.90;;;27.80;80.00;;;;;;5011906;28;20639;-72
2023/05/09 12:09:48;;;;;;;1.90;0.80;;;27.90;80.30;;;;;;5013831;28;20927;-72
2023/05/09 12:12:16;;;;;;;3.57;0.90;;;28.00;79.90;;;;;;5013230;28;20221;-72
2023/05/09 12:14:42;;;;;;;1.67;0.80;;;28.00;80.20;;;;;;5013388;28;20601;-72
2023/05/09 12:17:08;;;;;;;1.70;0.80;;;28.20;80.60;;;;;;5013459;28;21219;-72
2023/05/09 12:19:35;;;;;;;2.93;0.77;;;28.30;81.40;;;;;;5013013;28;20266;-72
2023/05/09 12:22:04;;;;;;;1.43;0.63;;;28.40;81.40;;;;;;5013127;28;20593;-72
2023/05/09 12:24:30;;;;;;;2.17;0.80;;;28.50;80.00;;;;;;4995458;28;21034;-72
2023/05/09 12:26:57;;;;;;;1.80;0.80;;;28.60;80.20;;;;;;5012068;28;20641;-73
2023/05/09 12:29:24;;;;;;;2.17;0.70;;;28.70;79.80;;;;;;5011558;28;20594;-73
2023/05/09 12:31:52;;;;;;;1.90;0.60;;;28.80;78.90;;;;;;5011956;28;20573;-73
2023/05/09 12:34:18;;;;;;;1.50;0.60;;;28.80;77.90;;;;;;5012104;28;20636;-73
2023/05/09 12:36:50;;;;;;;2.07;0.67;;;28.80;76.70;;;;;;5010124;28;20625;-72
2023/05/09 12:39:23;;;;;;;2.00;0.70;;;28.70;75.90;;;;;;5013243;28;20589;-73
2023/05/09 12:41:50;;;;;;;1.50;0.70;;;28.60;75.80;;;;;;5025567;28;20663;-72